createdAt,value
2022-10-22T00:02:11.677Z,79.70
2022-10-22T00:04:38.344Z,79.93
2022-10-22T00:07:06.533Z,79.52
2022-10-22T00:09:32.991Z,79.82
2022-10-22T00:11:59.558Z,79.61
2022-10-22T00:14:26.126Z,79.74
2022-10-22T00:16:52.743Z,80.16
2022-10-22T00:19:19.368Z,80.80
2022-10-22T00:21:46.122Z,79.65
2022-10-22T00:24:12.989Z,79.91
2022-10-22T00:26:40.482Z,80.14
2022-10-22T00:29:07.242Z,79.25
2022-10-22T00:31:33.805Z,79.59
2022-10-22T00:34:01.086Z,80.30
2022-10-22T00:36:27.697Z,80.32
2022-10-22T00:38:54.231Z,80.21
2022-10-22T00:41:20.886Z,80.50
2022-10-22T00:44:01.808Z,81.14
2022-10-22T00:46:29.287Z,80.81
2022-10-22T00:48:58.146Z,80.34
2022-10-22T00:51:28.774Z,79.97
2022-10-22T00:54:00.226Z,81.18
2022-10-22T00:56:27.077Z,80.90
2022-10-22T00:58:58.317Z,81.29
2022-10-22T01:01:27.734Z,80.64
2022-10-22T01:03:54.797Z,80.62
2022-10-22T01:06:33.359Z,82.33
2022-10-22T01:09:12.071Z,81.93
2022-10-22T01:12:07.182Z,82.38
2022-10-22T01:15:08.956Z,80.27
2022-10-22T01:18:02.316Z,79.81
2022-10-22T01:20:53.653Z,82.51
2022-10-22T01:23:43.639Z,80.83
2022-10-22T01:26:26.263Z,81.93
2022-10-22T01:29:07.193Z,80.39
2022-10-22T01:31:40.315Z,81.74
2022-10-22T01:34:08.799Z,80.76
2022-10-22T01:36:37.560Z,79.66
2022-10-22T01:39:05.793Z,81.13
2022-10-22T01:41:32.252Z,80.47
2022-10-22T01:43:58.884Z,81.13
2022-10-22T01:46:28.015Z,81.08
2022-10-22T01:49:26.707Z,84.32
2022-10-22T01:52:11.652Z,83.16
2022-10-22T01:55:33.145Z,80.86
2022-10-22T01:58:25.535Z,81.80
2022-10-22T02:01:09.713Z,81.76
2022-10-22T02:03:47.110Z,83.27
2022-10-22T02:06:19.391Z,81.61
2022-10-22T02:08:47.636Z,81.73
2022-10-22T02:27:53.216Z,81.78
2022-10-22T02:30:21.469Z,81.75
2022-10-22T02:33:14.292Z,81.86
2022-10-22T02:35:42.837Z,81.57
2022-10-22T02:38:10.895Z,82.16
2022-10-22T02:40:38.671Z,81.60
2022-10-22T02:43:06.283Z,81.44
2022-10-22T02:45:33.901Z,81.72
2022-10-22T02:48:00.716Z,81.66
2022-10-22T02:50:27.471Z,81.67
2022-10-22T02:52:54.026Z,83.21
2022-10-22T02:55:20.652Z,82.60
2022-10-22T02:57:47.272Z,82.22
2022-10-22T03:00:14.638Z,83.62
2022-10-22T03:02:41.103Z,82.18
2022-10-22T03:05:08.271Z,82.27
2022-10-22T03:07:34.941Z,83.08
2022-10-22T03:10:01.619Z,82.44
2022-10-22T03:12:28.155Z,82.29
2022-10-22T03:14:54.576Z,82.54
2022-10-22T03:17:21.145Z,82.91
2022-10-22T03:19:47.771Z,82.14
2022-10-22T03:22:21.544Z,83.33
2022-10-22T03:24:51.130Z,82.55
2022-10-22T03:27:20.091Z,82.39
2022-10-22T03:29:47.264Z,82.48
2022-10-22T03:32:14.117Z,82.97
2022-10-22T03:34:40.720Z,82.06
2022-10-22T03:37:07.435Z,84.19
2022-10-22T03:39:36.148Z,83.69
2022-10-22T03:42:04.946Z,84.25
2022-10-22T03:44:31.890Z,83.47
2022-10-22T03:47:01.746Z,83.08
2022-10-22T03:49:29.408Z,83.37
2022-10-22T03:51:55.877Z,83.36
2022-10-22T03:54:22.781Z,83.23
2022-10-22T03:56:49.466Z,83.08
2022-10-22T03:59:16.209Z,83.69
2022-10-22T04:01:42.723Z,82.96
2022-10-22T04:04:09.226Z,83.84
2022-10-22T04:06:35.748Z,84.06
2022-10-22T04:09:02.648Z,83.74
2022-10-22T04:11:29.326Z,83.82
2022-10-22T04:13:56.076Z,84.63
2022-10-22T04:16:25.111Z,84.34
2022-10-22T04:18:54.171Z,83.93
2022-10-22T04:26:31.130Z,84.35
2022-10-22T04:28:57.713Z,84.15
2022-10-22T04:31:26.097Z,84.67
2022-10-22T04:33:58.082Z,85.39
2022-10-22T04:36:25.939Z,83.79
2022-10-22T04:38:57.219Z,85.00
2022-10-22T04:41:28.367Z,85.20
2022-10-22T04:43:59.221Z,84.27
2022-10-22T04:46:28.386Z,85.06
2022-10-22T04:48:55.202Z,84.57
2022-10-22T04:51:24.303Z,85.26
2022-10-22T04:53:50.948Z,84.58
2022-10-22T04:56:25.129Z,85.26
2022-10-22T04:58:55.421Z,85.49
2022-10-22T05:01:26.407Z,85.83
2022-10-22T05:03:54.800Z,84.80
2022-10-22T05:06:22.866Z,84.49
2022-10-22T05:08:54.220Z,86.10
2022-10-22T05:11:23.703Z,85.53
2022-10-22T05:13:51.272Z,85.76
2022-10-22T05:16:17.906Z,85.08
2022-10-22T05:18:45.371Z,86.40
2022-10-22T05:21:14.595Z,85.63
2022-10-22T05:23:41.742Z,84.84
2022-10-22T05:26:11.167Z,85.63
2022-10-22T05:28:39.861Z,85.04
2022-10-22T05:31:08.107Z,85.92
2022-10-22T05:33:35.233Z,85.52
2022-10-22T05:36:03.440Z,85.77
2022-10-22T05:38:30.234Z,86.09
2022-10-22T05:41:11.481Z,86.10
2022-10-22T05:43:38.607Z,85.80
2022-10-22T05:46:08.475Z,84.75
2022-10-22T05:48:35.410Z,86.04
2022-10-22T05:51:05.511Z,85.97
2022-10-22T05:53:34.059Z,85.53
2022-10-22T05:56:06.199Z,85.56
2022-10-22T05:58:33.530Z,85.94
2022-10-22T06:01:12.890Z,85.96
2022-10-22T06:03:41.121Z,85.79
2022-10-22T06:06:18.792Z,85.88
2022-10-22T06:08:47.649Z,86.42
2022-10-22T06:11:15.193Z,85.85
2022-10-22T06:13:41.825Z,85.55
2022-10-22T06:16:08.726Z,85.35
2022-10-22T06:18:35.303Z,85.36
2022-10-22T06:21:11.572Z,86.85
2022-10-22T06:23:39.089Z,86.00
2022-10-22T06:26:06.153Z,86.60
2022-10-22T06:28:33.353Z,86.87
2022-10-22T06:31:01.738Z,86.43
2022-10-22T06:33:29.272Z,86.96
2022-10-22T06:35:55.946Z,86.94
2022-10-22T06:38:22.533Z,86.72
2022-10-22T06:40:49.206Z,86.41
2022-10-22T06:43:15.711Z,87.21
2022-10-22T06:45:42.407Z,87.70
2022-10-22T06:48:08.941Z,88.30
2022-10-22T06:50:35.838Z,88.22
2022-10-22T06:53:02.392Z,88.71
2022-10-22T06:55:29.182Z,88.57
2022-10-22T06:57:56.317Z,88.86
2022-10-22T07:00:23.165Z,88.29
2022-10-22T07:02:57.628Z,88.69
2022-10-22T07:05:26.080Z,88.56
2022-10-22T07:07:53.564Z,89.34
2022-10-22T07:10:20.491Z,89.23
2022-10-22T07:12:47.207Z,89.61
2022-10-22T07:15:14.216Z,89.00
2022-10-22T07:20:12.848Z,89.52
2022-10-22T07:22:42.295Z,88.90
2022-10-22T07:25:09.534Z,89.35
2022-10-22T07:27:36.120Z,89.52
2022-10-22T07:30:03.032Z,89.14
2022-10-22T07:32:31.989Z,88.96
2022-10-22T07:34:58.721Z,88.99
2022-10-22T07:37:26.794Z,88.82
2022-10-22T07:39:53.824Z,89.03
2022-10-22T07:42:20.500Z,88.67
2022-10-22T07:44:47.066Z,88.70
2022-10-22T07:47:13.665Z,88.52
2022-10-22T07:49:40.368Z,88.82
2022-10-22T07:52:08.233Z,88.74
2022-10-22T07:54:37.848Z,88.92
2022-10-22T07:57:06.789Z,89.77
2022-10-22T07:59:34.503Z,88.89
2022-10-22T08:02:01.053Z,89.39
2022-10-22T08:04:27.599Z,89.56
2022-10-22T08:06:54.339Z,89.45
2022-10-22T08:09:24.227Z,89.12
2022-10-22T08:11:51.027Z,89.36
2022-10-22T08:14:17.908Z,89.37
2022-10-22T08:16:45.069Z,87.89
2022-10-22T08:19:13.448Z,88.95
2022-10-22T08:21:40.537Z,88.56
2022-10-22T08:24:10.326Z,88.83
2022-10-22T08:26:37.140Z,86.94
2022-10-22T08:29:03.884Z,88.10
2022-10-22T08:31:30.812Z,88.42
2022-10-22T08:34:02.572Z,88.48
2022-10-22T08:36:29.161Z,87.92
2022-10-22T08:38:55.895Z,88.14
2022-10-22T08:41:24.129Z,88.10
2022-10-22T08:44:21.523Z,87.68
2022-10-22T08:47:21.391Z,88.01
2022-10-22T08:49:49.309Z,87.63
2022-10-22T08:52:19.822Z,87.75
2022-10-22T08:55:02.278Z,87.54
2022-10-22T08:57:52.203Z,87.54
2022-10-22T09:00:32.124Z,87.26
2022-10-22T09:03:42.684Z,86.88
2022-10-22T09:06:14.970Z,86.54
2022-10-22T09:08:47.472Z,87.08
2022-10-22T09:11:48.775Z,86.41
2022-10-22T09:14:20.613Z,85.70
2022-10-22T09:17:12.110Z,86.04
2022-10-22T09:20:17.103Z,84.79
2022-10-22T09:23:01.591Z,85.71
2022-10-22T09:25:30.908Z,85.71
2022-10-22T09:28:00.820Z,85.54
2022-10-22T09:30:31.157Z,85.53
2022-10-22T09:33:03.814Z,85.68
2022-10-22T09:35:34.049Z,85.30
2022-10-22T09:38:07.379Z,84.89
2022-10-22T09:40:43.999Z,85.00
2022-10-22T09:43:14.063Z,83.51
2022-10-22T09:45:41.396Z,84.14
2022-10-22T09:48:34.198Z,81.91
2022-10-22T09:51:22.881Z,82.78
2022-10-22T09:54:06.136Z,83.29
2022-10-22T09:56:33.809Z,82.15
2022-10-22T09:59:00.512Z,82.44
2022-10-22T10:01:34.596Z,82.04
2022-10-22T10:04:09.688Z,81.48
2022-10-22T10:06:40.500Z,81.15
2022-10-22T10:14:32.330Z,81.50
2022-10-22T10:17:29.207Z,81.75
2022-10-22T10:21:03.902Z,79.33
2022-10-22T10:23:44.525Z,81.41
2022-10-22T10:26:32.208Z,80.75
2022-10-22T10:29:33.363Z,80.75
2022-10-22T10:32:54.025Z,80.33
2022-10-22T10:35:28.336Z,78.28
2022-10-22T10:40:33.310Z,79.05
2022-10-22T10:43:22.402Z,77.36
2022-10-22T10:46:21.173Z,77.84
2022-10-22T10:49:06.153Z,77.03
2022-10-22T10:52:13.168Z,76.92
2022-10-22T10:54:49.509Z,77.13
2022-10-22T10:57:54.502Z,75.12
2022-10-22T11:00:22.680Z,76.26
2022-10-22T11:03:01.937Z,74.18
2022-10-22T11:05:59.352Z,74.02
2022-10-22T11:08:41.944Z,75.41
2022-10-22T11:11:23.981Z,73.87
2022-10-22T11:13:59.337Z,75.21
2022-10-22T11:16:37.221Z,75.30
2022-10-22T11:19:22.810Z,72.86
2022-10-22T11:22:00.886Z,74.03
2022-10-22T11:24:41.265Z,71.59
2022-10-22T11:27:37.412Z,71.63
2022-10-22T11:30:11.797Z,73.44
2022-10-22T11:32:40.745Z,73.55
2022-10-22T11:35:14.832Z,70.84
2022-10-22T11:37:47.220Z,73.08
2022-10-22T11:40:14.052Z,72.87
2022-10-22T11:42:46.754Z,72.81
2022-10-22T11:45:39.656Z,71.96
2022-10-22T11:48:34.551Z,70.25
2022-10-22T11:51:03.138Z,71.25
2022-10-22T11:53:33.872Z,71.55
2022-10-22T11:56:05.111Z,70.27
2022-10-22T11:58:50.773Z,70.77
2022-10-22T12:01:27.932Z,67.54
2022-10-22T12:04:16.100Z,69.73
2022-10-22T12:07:03.313Z,70.61
2022-10-22T12:09:32.916Z,70.33
2022-10-22T12:12:12.638Z,70.22
2022-10-22T12:14:53.644Z,69.42
2022-10-22T12:17:25.632Z,69.54
2022-10-22T12:20:07.542Z,69.77
2022-10-22T12:22:37.905Z,69.51
2022-10-22T12:25:18.665Z,68.84
2022-10-22T12:27:51.996Z,68.86
2022-10-22T12:30:22.304Z,68.63
2022-10-22T12:32:52.054Z,68.43
2022-10-22T12:35:21.190Z,68.03
2022-10-22T12:38:08.445Z,66.77
2022-10-22T12:40:35.741Z,67.70
2022-10-22T12:43:13.771Z,68.35
2022-10-22T12:45:43.020Z,67.56
2022-10-22T12:48:23.923Z,66.60
2022-10-22T12:50:56.972Z,67.45
2022-10-22T12:53:31.706Z,67.06
2022-10-22T12:56:06.847Z,65.69
2022-10-22T12:58:39.647Z,65.89
2022-10-22T13:01:07.138Z,64.92
2022-10-22T13:03:43.063Z,64.79
2022-10-22T13:06:34.244Z,63.00
2022-10-22T13:09:25.153Z,63.86
2022-10-22T13:11:59.277Z,64.11
2022-10-22T13:14:29.898Z,63.80
2022-10-22T13:17:34.609Z,63.11
2022-10-22T13:20:05.549Z,63.82
2022-10-22T13:22:55.111Z,63.66
2022-10-22T13:25:35.711Z,63.48
2022-10-22T13:28:28.534Z,63.73
2022-10-22T13:30:58.508Z,63.89
2022-10-22T13:33:30.784Z,63.78
2022-10-22T13:35:57.461Z,63.62
2022-10-22T13:38:26.659Z,63.38
2022-10-22T13:40:54.664Z,63.02
2022-10-22T13:43:22.323Z,61.79
2022-10-22T13:45:54.201Z,62.68
2022-10-22T13:48:22.556Z,62.84
2022-10-22T13:50:54.239Z,62.74
2022-10-22T13:53:29.133Z,62.39
2022-10-22T13:55:56.067Z,62.26
2022-10-22T13:58:25.045Z,62.97
2022-10-22T14:00:58.398Z,63.01
2022-10-22T14:03:34.346Z,63.08
2022-10-22T14:06:01.474Z,63.88
2022-10-22T14:08:28.715Z,63.97
2022-10-22T14:28:26.872Z,64.20
2022-10-22T14:30:54.229Z,65.07
2022-10-22T14:33:28.930Z,64.98
2022-10-22T14:36:00.063Z,65.27
2022-10-22T14:38:27.353Z,65.02
2022-10-22T14:40:54.914Z,65.35
2022-10-22T14:43:24.634Z,65.33
2022-10-22T14:45:51.939Z,65.19
2022-10-22T14:50:47.227Z,65.50
2022-10-22T14:53:16.905Z,65.76
2022-10-22T14:55:44.969Z,65.98
2022-10-22T14:58:12.447Z,65.75
2022-10-22T15:00:41.441Z,65.88
2022-10-22T15:03:17.270Z,65.96
2022-10-22T15:05:45.784Z,66.00
2022-10-22T15:08:17.047Z,66.14
2022-10-22T15:10:43.662Z,66.37
2022-10-22T15:13:10.523Z,66.50
2022-10-22T15:15:40.379Z,66.92
2022-10-22T15:18:07.791Z,66.60
2022-10-22T15:20:34.660Z,66.54
2022-10-22T15:23:01.340Z,66.83
2022-10-22T15:25:29.283Z,66.90
2022-10-22T15:28:00.844Z,67.00
2022-10-22T15:30:31.377Z,67.05
2022-10-22T15:33:01.940Z,67.17
2022-10-22T15:35:28.823Z,67.24
2022-10-22T15:37:55.812Z,67.16
2022-10-22T15:40:22.779Z,67.17
2022-10-22T15:42:53.589Z,67.34
2022-10-22T15:45:26.337Z,67.23
2022-10-22T15:47:55.461Z,67.12
2022-10-22T15:50:22.429Z,67.33
2022-10-22T15:52:49.178Z,67.27
2022-10-22T15:55:18.882Z,67.38
2022-10-22T15:57:46.084Z,67.43
2022-10-22T16:00:13.446Z,67.38
2022-10-22T16:02:40.215Z,67.39
2022-10-22T16:05:07.455Z,67.39
2022-10-22T16:07:34.171Z,67.37
2022-10-22T16:10:01.737Z,67.27
2022-10-22T16:12:31.209Z,67.69
2022-10-22T16:14:58.021Z,67.60
2022-10-22T16:17:24.754Z,67.63
2022-10-22T16:19:53.643Z,67.80
2022-10-22T16:22:20.247Z,67.82
2022-10-22T16:24:46.833Z,67.95
2022-10-22T16:27:13.573Z,68.04
2022-10-22T16:29:40.737Z,68.13
2022-10-22T16:32:08.176Z,67.94
2022-10-22T16:34:34.707Z,68.01
2022-10-22T16:37:01.661Z,68.06
2022-10-22T16:39:28.459Z,68.35
2022-10-22T16:41:58.073Z,68.63
2022-10-22T16:44:24.807Z,68.73
2022-10-22T16:46:54.032Z,69.08
2022-10-22T16:49:20.646Z,69.11
2022-10-22T16:51:47.209Z,68.83
2022-10-22T16:54:15.794Z,69.23
2022-10-22T16:56:42.438Z,69.11
2022-10-22T16:59:08.977Z,69.30
2022-10-22T17:01:39.667Z,69.20
2022-10-22T17:04:07.654Z,69.28
2022-10-22T17:06:34.529Z,69.31
2022-10-22T17:09:01.079Z,69.60
2022-10-22T17:11:30.238Z,69.42
2022-10-22T17:13:56.869Z,69.81
2022-10-22T17:16:24.830Z,69.77
2022-10-22T17:18:54.073Z,70.18
2022-10-22T17:21:23.151Z,70.19
2022-10-22T17:23:56.542Z,70.54
2022-10-22T17:26:24.139Z,70.59
2022-10-22T17:28:51.063Z,70.71
2022-10-22T17:31:24.641Z,70.66
2022-10-22T17:33:54.083Z,70.45
2022-10-22T17:36:22.089Z,70.51
2022-10-22T17:38:52.075Z,70.38
2022-10-22T17:41:21.778Z,70.58
2022-10-22T17:43:49.034Z,71.00
2022-10-22T17:46:24.715Z,70.66
2022-10-22T17:48:55.375Z,70.92
2022-10-22T17:51:23.336Z,71.05
2022-10-22T17:53:50.808Z,70.62
2022-10-22T17:56:24.629Z,71.43
2022-10-22T17:58:51.805Z,71.32
2022-10-22T18:01:27.504Z,71.16
2022-10-22T18:03:55.992Z,71.27
2022-10-22T18:33:11.847Z,71.90
2022-10-22T18:35:38.666Z,71.83
2022-10-22T18:38:06.655Z,71.97
2022-10-22T18:40:33.358Z,71.88
2022-10-22T18:43:02.958Z,72.32
2022-10-22T18:45:31.056Z,72.24
2022-10-22T18:47:58.943Z,72.21
2022-10-22T18:50:25.563Z,72.09
2022-10-22T18:52:52.384Z,72.67
2022-10-22T18:55:18.957Z,72.40
2022-10-22T18:57:45.612Z,72.39
2022-10-22T19:00:13.056Z,72.69
2022-10-22T19:02:40.021Z,72.43
2022-10-22T19:05:10.422Z,72.65
2022-10-22T19:07:37.028Z,72.55
2022-10-22T19:10:05.105Z,72.79
2022-10-22T19:12:31.819Z,72.41
2022-10-22T19:14:58.577Z,72.30
2022-10-22T19:17:25.956Z,72.38
2022-10-22T19:19:56.359Z,72.56
2022-10-22T19:22:23.069Z,72.40
2022-10-22T19:24:50.063Z,72.69
2022-10-22T19:27:17.849Z,72.63
2022-10-22T19:29:46.012Z,72.65
2022-10-22T19:32:16.073Z,72.94
2022-10-22T19:34:43.197Z,72.71
2022-10-22T19:37:09.736Z,72.97
2022-10-22T19:39:37.710Z,72.95
2022-10-22T19:42:04.624Z,73.14
2022-10-22T19:44:31.329Z,73.25
2022-10-22T19:46:57.957Z,73.00
2022-10-22T19:49:27.034Z,73.55
2022-10-22T19:51:54.672Z,73.34
2022-10-22T19:54:21.326Z,73.40
2022-10-22T19:56:49.388Z,73.63
2022-10-22T19:59:18.892Z,73.63
2022-10-22T20:01:45.587Z,73.37
2022-10-22T20:04:16.057Z,73.49
2022-10-22T20:06:43.094Z,73.37
2022-10-22T20:09:12.523Z,73.04
2022-10-22T20:11:39.474Z,73.10
2022-10-22T20:14:07.506Z,73.04
2022-10-22T20:16:36.065Z,73.16
2022-10-22T20:19:05.459Z,72.98
2022-10-22T20:21:33.334Z,72.85
2022-10-22T20:24:00.584Z,73.03
2022-10-22T20:26:28.492Z,72.59
2022-10-22T20:28:56.682Z,72.18
2022-10-22T20:31:25.212Z,71.97
2022-10-22T20:33:51.948Z,72.46
2022-10-22T20:36:21.279Z,72.94
2022-10-22T20:38:48.511Z,72.21
2022-10-22T20:41:19.757Z,72.67
2022-10-22T20:43:47.581Z,71.89
2022-10-22T20:46:23.168Z,73.53
2022-10-22T20:48:55.337Z,73.50
2022-10-22T20:51:22.179Z,72.17
2022-10-22T20:53:48.711Z,72.26
2022-10-22T20:56:16.451Z,72.59
2022-10-22T20:58:48.613Z,72.37
2022-10-22T21:01:23.821Z,72.26
2022-10-22T21:03:51.631Z,71.39
2022-10-22T21:06:23.171Z,71.85
2022-10-22T21:08:51.001Z,71.96
2022-10-22T21:11:18.651Z,71.60
2022-10-22T21:13:45.262Z,71.13
2022-10-22T21:16:13.848Z,71.89
2022-10-22T21:18:40.716Z,71.28
2022-10-22T21:21:09.715Z,71.46
2022-10-22T21:23:36.667Z,72.71
2022-10-22T21:26:04.625Z,73.57
2022-10-22T21:28:35.608Z,74.21
2022-10-22T21:31:08.038Z,74.86
2022-10-22T21:33:39.250Z,75.11
2022-10-22T21:36:06.976Z,73.86
2022-10-22T21:38:34.707Z,73.55
2022-10-22T21:41:07.451Z,74.84
2022-10-22T21:43:40.833Z,75.15
2022-10-22T21:46:17.009Z,74.66
2022-10-22T21:48:44.275Z,74.12
2022-10-22T21:51:11.984Z,74.55
2022-10-22T21:53:39.373Z,74.65
2022-10-22T21:56:07.355Z,74.40
2022-10-22T21:58:35.586Z,75.06
2022-10-22T22:01:02.931Z,73.82
2022-10-22T22:03:29.467Z,74.33
2022-10-22T22:06:05.971Z,74.47
2022-10-22T22:08:34.066Z,71.92
2022-10-22T22:11:03.102Z,71.78
2022-10-22T22:13:29.979Z,72.65
2022-10-22T22:16:01.455Z,74.59
2022-10-22T22:18:28.269Z,73.03
2022-10-22T22:20:54.704Z,73.12
2022-10-22T22:23:21.373Z,73.47
2022-10-22T22:25:47.906Z,73.00
2022-10-22T22:28:14.535Z,73.22
2022-10-22T22:30:41.195Z,73.62
2022-10-22T22:33:07.747Z,73.63
2022-10-22T22:35:37.051Z,73.81
2022-10-22T22:38:03.987Z,73.95
2022-10-22T22:40:33.079Z,74.15
2022-10-22T22:43:00.523Z,74.14
2022-10-22T22:45:26.991Z,74.41
2022-10-22T22:54:25.179Z,76.87
2022-10-22T22:56:51.887Z,75.44
2022-10-22T22:59:18.353Z,75.71
2022-10-22T23:01:47.941Z,76.33
2022-10-22T23:04:19.175Z,75.85
2022-10-22T23:06:46.257Z,75.38
2022-10-22T23:09:15.499Z,75.61
2022-10-22T23:11:43.421Z,75.45
2022-10-22T23:14:13.779Z,75.43
2022-10-22T23:16:45.629Z,75.89
2022-10-22T23:19:14.771Z,74.98
2022-10-22T23:21:45.561Z,75.70
2022-10-22T23:24:14.957Z,75.71
2022-10-22T23:26:44.615Z,75.48
2022-10-22T23:29:17.427Z,77.27
2022-10-22T23:31:44.996Z,75.38
2022-10-22T23:34:14.158Z,76.25
2022-10-22T23:36:40.795Z,75.92
2022-10-22T23:39:14.640Z,77.80
2022-10-22T23:41:41.159Z,76.49
2022-10-22T23:44:09.034Z,76.55
2022-10-22T23:46:36.108Z,76.95
2022-10-22T23:49:02.712Z,76.88
2022-10-22T23:51:29.181Z,76.46
2022-10-22T23:53:59.888Z,76.72
2022-10-22T23:56:28.117Z,75.96
2022-10-22T23:58:55.900Z,76.59
